sensor_id;sensor_type;location;lat;lon;timestamp;pressure;altitude;pressure_sealevel;temperature;humidity
79366;BME280;68833;53.160;17.920;2023-11-22T00:01:35;101704.64;;;-1.89;73.27
79366;BME280;68833;53.160;17.920;2023-11-22T00:04:03;101706.12;;;-1.99;73.06
79366;BME280;68833;53.160;17.920;2023-11-22T00:06:31;101707.14;;;-2.11;72.93
79366;BME280;68833;53.160;17.920;2023-11-22T00:08:58;101706.94;;;-2.20;73.31
79366;BME280;68833;53.160;17.920;2023-11-22T00:11:25;101696.92;;;-2.29;73.49
79366;BME280;68833;53.160;17.920;2023-11-22T00:13:51;101696.19;;;-2.39;73.29
79366;BME280;68833;53.160;17.920;2023-11-22T00:16:22;101690.73;;;-2.47;73.65
79366;BME280;68833;53.160;17.920;2023-11-22T00:18:49;101692.26;;;-2.56;73.57
79366;BME280;68833;53.160;17.920;2023-11-22T00:21:16;101703.21;;;-2.62;73.85
79366;BME280;68833;53.160;17.920;2023-11-22T00:23:43;101708.73;;;-2.68;74.04
79366;BME280;68833;53.160;17.920;2023-11-22T00:26:10;101712.04;;;-2.70;74.16
79366;BME280;68833;53.160;17.920;2023-11-22T00:28:41;101710.68;;;-2.70;74.21
79366;BME280;68833;53.160;17.920;2023-11-22T00:31:07;101710.60;;;-2.68;74.18
79366;BME280;68833;53.160;17.920;2023-11-22T00:33:34;101718.26;;;-2.67;74.09
79366;BME280;68833;53.160;17.920;2023-11-22T00:36:02;101717.46;;;-2.66;74.56
79366;BME280;68833;53.160;17.920;2023-11-22T00:38:31;101715.84;;;-2.64;74.60
79366;BME280;68833;53.160;17.920;2023-11-22T00:40:59;101722.48;;;-2.65;74.24
79366;BME280;68833;53.160;17.920;2023-11-22T00:43:26;101724.03;;;-2.68;74.14
79366;BME280;68833;53.160;17.920;2023-11-22T00:45:54;101728.73;;;-2.70;74.24
79366;BME280;68833;53.160;17.920;2023-11-22T00:48:21;101728.59;;;-2.72;74.29
79366;BME280;68833;53.160;17.920;2023-11-22T00:50:47;101727.09;;;-2.74;74.75
79366;BME280;68833;53.160;17.920;2023-11-22T00:53:14;101738.33;;;-2.76;74.55
79366;BME280;68833;53.160;17.920;2023-11-22T00:55:41;101741.35;;;-2.80;74.49
79366;BME280;68833;53.160;17.920;2023-11-22T00:58:10;101742.61;;;-2.84;74.43
79366;BME280;68833;53.160;17.920;2023-11-22T01:00:37;101746.75;;;-2.93;74.36
79366;BME280;68833;53.160;17.920;2023-11-22T01:03:05;101747.39;;;-3.02;74.50
79366;BME280;68833;53.160;17.920;2023-11-22T01:05:32;101747.78;;;-3.04;74.55
79366;BME280;68833;53.160;17.920;2023-11-22T01:07:59;101751.17;;;-3.04;74.89
79366;BME280;68833;53.160;17.920;2023-11-22T01:10:26;101754.52;;;-3.03;74.94
79366;BME280;68833;53.160;17.920;2023-11-22T01:12:52;101763.04;;;-3.02;74.99
79366;BME280;68833;53.160;17.920;2023-11-22T01:15:19;101769.59;;;-2.99;75.08
79366;BME280;68833;53.160;17.920;2023-11-22T01:17:46;101766.86;;;-2.95;75.38
79366;BME280;68833;53.160;17.920;2023-11-22T01:20:13;101764.27;;;-2.93;75.17
79366;BME280;68833;53.160;17.920;2023-11-22T01:22:42;101765.60;;;-2.94;75.30
79366;BME280;68833;53.160;17.920;2023-11-22T01:25:09;101761.67;;;-2.94;75.38
79366;BME280;68833;53.160;17.920;2023-11-22T01:27:36;101762.79;;;-2.95;75.39
79366;BME280;68833;53.160;17.920;2023-11-22T01:30:05;101777.29;;;-2.96;75.15
79366;BME280;68833;53.160;17.920;2023-11-22T01:32:34;101772.25;;;-3.00;75.24
79366;BME280;68833;53.160;17.920;2023-11-22T01:35:04;101766.85;;;-3.04;75.34
79366;BME280;68833;53.160;17.920;2023-11-22T01:37:32;101752.59;;;-3.07;75.74
79366;BME280;68833;53.160;17.920;2023-11-22T01:39:59;101755.63;;;-3.05;75.92
79366;BME280;68833;53.160;17.920;2023-11-22T01:42:26;101763.27;;;-3.04;75.54
79366;BME280;68833;53.160;17.920;2023-11-22T01:44:53;101761.95;;;-3.02;75.53
79366;BME280;68833;53.160;17.920;2023-11-22T01:47:20;101766.42;;;-3.00;75.87
79366;BME280;68833;53.160;17.920;2023-11-22T01:49:48;101774.65;;;-2.97;75.72
79366;BME280;68833;53.160;17.920;2023-11-22T01:52:15;101776.00;;;-3.01;75.30
79366;BME280;68833;53.160;17.920;2023-11-22T01:54:42;101772.61;;;-3.02;75.75
79366;BME280;68833;53.160;17.920;2023-11-22T01:57:11;101777.27;;;-3.02;75.97
79366;BME280;68833;53.160;17.920;2023-11-22T01:59:39;101780.39;;;-3.02;76.12
79366;BME280;68833;53.160;17.920;2023-11-22T02:02:07;101786.92;;;-3.02;76.02
79366;BME280;68833;53.160;17.920;2023-11-22T02:04:33;101788.19;;;-3.06;75.70
79366;BME280;68833;53.160;17.920;2023-11-22T02:07:02;101786.65;;;-3.09;75.99
79366;BME280;68833;53.160;17.920;2023-11-22T02:09:29;101787.32;;;-3.09;76.20
79366;BME280;68833;53.160;17.920;2023-11-22T02:11:56;101799.45;;;-3.07;76.19
79366;BME280;68833;53.160;17.920;2023-11-22T02:14:24;101804.20;;;-3.06;75.75
79366;BME280;68833;53.160;17.920;2023-11-22T02:16:51;101808.46;;;-3.06;75.96
79366;BME280;68833;53.160;17.920;2023-11-22T02:19:18;101810.63;;;-3.08;76.00
79366;BME280;68833;53.160;17.920;2023-11-22T02:21:45;101805.28;;;-3.08;76.03
79366;BME280;68833;53.160;17.920;2023-11-22T02:24:12;101808.84;;;-3.08;75.91
79366;BME280;68833;53.160;17.920;2023-11-22T02:26:44;101807.67;;;-3.10;76.06
79366;BME280;68833;53.160;17.920;2023-11-22T02:29:11;101808.45;;;-3.12;76.52
79366;BME280;68833;53.160;17.920;2023-11-22T02:31:42;101815.90;;;-3.13;76.08
79366;BME280;68833;53.160;17.920;2023-11-22T02:34:12;101821.69;;;-3.17;76.15
79366;BME280;68833;53.160;17.920;2023-11-22T02:36:42;101826.67;;;-3.19;76.44
79366;BME280;68833;53.160;17.920;2023-11-22T02:39:10;101827.25;;;-3.18;76.75
79366;BME280;68833;53.160;17.920;2023-11-22T02:41:37;101825.91;;;-3.15;76.61
79366;BME280;68833;53.160;17.920;2023-11-22T02:44:04;101828.85;;;-3.12;76.40
79366;BME280;68833;53.160;17.920;2023-11-22T02:46:33;101827.61;;;-3.11;76.77
79366;BME280;68833;53.160;17.920;2023-11-22T02:49:00;101826.39;;;-3.08;76.82
79366;BME280;68833;53.160;17.920;2023-11-22T02:51:27;101841.00;;;-3.08;76.48
79366;BME280;68833;53.160;17.920;2023-11-22T02:53:54;101855.27;;;-3.08;76.86
79366;BME280;68833;53.160;17.920;2023-11-22T02:56:21;101855.67;;;-3.07;77.03
79366;BME280;68833;53.160;17.920;2023-11-22T02:58:49;101858.73;;;-3.05;77.17
79366;BME280;68833;53.160;17.920;2023-11-22T03:01:16;101873.25;;;-3.03;76.54
79366;BME280;68833;53.160;17.920;2023-11-22T03:03:43;101865.86;;;-3.03;76.66
79366;BME280;68833;53.160;17.920;2023-11-22T03:06:10;101851.38;;;-3.01;77.08
79366;BME280;68833;53.160;17.920;2023-11-22T03:08:37;101863.91;;;-3.02;76.65
79366;BME280;68833;53.160;17.920;2023-11-22T03:11:04;101868.88;;;-3.02;76.75
79366;BME280;68833;53.160;17.920;2023-11-22T03:13:31;101857.12;;;-3.03;77.17
79366;BME280;68833;53.160;17.920;2023-11-22T03:15:58;101867.02;;;-3.04;76.78
79366;BME280;68833;53.160;17.920;2023-11-22T03:18:25;101856.64;;;-3.05;77.12
79366;BME280;68833;53.160;17.920;2023-11-22T03:20:54;101844.23;;;-3.06;77.14
79366;BME280;68833;53.160;17.920;2023-11-22T03:23:21;101856.42;;;-3.06;77.17
79366;BME280;68833;53.160;17.920;2023-11-22T03:25:49;101860.09;;;-3.05;76.82
79366;BME280;68833;53.160;17.920;2023-11-22T03:28:16;101857.31;;;-3.03;77.04
79366;BME280;68833;53.160;17.920;2023-11-22T03:30:44;101850.16;;;-2.99;77.40
79366;BME280;68833;53.160;17.920;2023-11-22T03:33:12;101848.91;;;-2.94;77.22
79366;BME280;68833;53.160;17.920;2023-11-22T03:35:41;101853.63;;;-2.91;77.00
79366;BME280;68833;53.160;17.920;2023-11-22T03:38:08;101847.04;;;-2.89;77.23
79366;BME280;68833;53.160;17.920;2023-11-22T03:40:35;101839.45;;;-2.89;77.13
79366;BME280;68833;53.160;17.920;2023-11-22T03:43:04;101853.07;;;-2.89;77.41
79366;BME280;68833;53.160;17.920;2023-11-22T03:45:31;101859.43;;;-2.92;76.86
79366;BME280;68833;53.160;17.920;2023-11-22T03:47:57;101860.98;;;-2.94;77.13
79366;BME280;68833;53.160;17.920;2023-11-22T03:50:27;101866.11;;;-2.95;77.29
79366;BME280;68833;53.160;17.920;2023-11-22T03:52:54;101873.89;;;-2.94;77.26
79366;BME280;68833;53.160;17.920;2023-11-22T03:55:21;101873.09;;;-2.90;77.55
79366;BME280;68833;53.160;17.920;2023-11-22T03:57:49;101864.27;;;-2.85;77.48
79366;BME280;68833;53.160;17.920;2023-11-22T04:00:17;101865.66;;;-2.83;77.34
79366;BME280;68833;53.160;17.920;2023-11-22T04:02:45;101879.88;;;-2.81;77.50
79366;BME280;68833;53.160;17.920;2023-11-22T04:05:12;101872.43;;;-2.79;77.39
79366;BME280;68833;53.160;17.920;2023-11-22T04:07:40;101878.36;;;-2.80;76.91
79366;BME280;68833;53.160;17.920;2023-11-22T04:10:07;101892.20;;;-2.84;76.53
79366;BME280;68833;53.160;17.920;2023-11-22T04:12:35;101903.38;;;-2.90;76.69
79366;BME280;68833;53.160;17.920;2023-11-22T04:15:02;101910.99;;;-2.94;76.77
79366;BME280;68833;53.160;17.920;2023-11-22T04:17:29;101916.88;;;-2.99;77.06
79366;BME280;68833;53.160;17.920;2023-11-22T04:19:56;101911.52;;;-3.02;77.46
79366;BME280;68833;53.160;17.920;2023-11-22T04:22:23;101913.09;;;-3.01;77.17
79366;BME280;68833;53.160;17.920;2023-11-22T04:24:50;101919.78;;;-3.02;76.76
79366;BME280;68833;53.160;17.920;2023-11-22T04:27:17;101919.60;;;-3.02;77.16
79366;BME280;68833;53.160;17.920;2023-11-22T04:29:44;101924.13;;;-3.01;77.08
79366;BME280;68833;53.160;17.920;2023-11-22T04:32:12;101929.41;;;-3.01;77.12
79366;BME280;68833;53.160;17.920;2023-11-22T04:34:39;101927.70;;;-3.01;77.08
79366;BME280;68833;53.160;17.920;2023-11-22T04:37:06;101925.69;;;-3.03;76.88
79366;BME280;68833;53.160;17.920;2023-11-22T04:39:33;101931.79;;;-3.07;76.43
79366;BME280;68833;53.160;17.920;2023-11-22T04:42:00;101932.67;;;-3.12;76.86
79366;BME280;68833;53.160;17.920;2023-11-22T04:44:27;101938.30;;;-3.18;76.78
79366;BME280;68833;53.160;17.920;2023-11-22T04:46:54;101943.02;;;-3.19;77.63
79366;BME280;68833;53.160;17.920;2023-11-22T04:49:21;101943.80;;;-3.18;77.33
79366;BME280;68833;53.160;17.920;2023-11-22T04:51:48;101946.05;;;-3.17;76.92
79366;BME280;68833;53.160;17.920;2023-11-22T04:54:16;101952.61;;;-3.17;76.85
79366;BME280;68833;53.160;17.920;2023-11-22T04:56:44;101955.46;;;-3.16;77.47
79366;BME280;68833;53.160;17.920;2023-11-22T04:59:11;101957.73;;;-3.12;77.70
79366;BME280;68833;53.160;17.920;2023-11-22T05:01:38;101960.60;;;-3.11;77.37
79366;BME280;68833;53.160;17.920;2023-11-22T05:04:05;101962.41;;;-3.12;77.17
79366;BME280;68833;53.160;17.920;2023-11-22T05:06:32;101957.73;;;-3.12;77.39
79366;BME280;68833;53.160;17.920;2023-11-22T05:08:59;101964.63;;;-3.12;77.50
79366;BME280;68833;53.160;17.920;2023-11-22T05:11:26;101972.98;;;-3.13;77.65
79366;BME280;68833;53.160;17.920;2023-11-22T05:13:54;101971.00;;;-3.12;77.62
79366;BME280;68833;53.160;17.920;2023-11-22T05:16:21;101975.60;;;-3.10;77.58
79366;BME280;68833;53.160;17.920;2023-11-22T05:18:49;101979.48;;;-3.08;77.24
79366;BME280;68833;53.160;17.920;2023-11-22T05:21:16;101984.09;;;-3.09;77.20
79366;BME280;68833;53.160;17.920;2023-11-22T05:23:44;101988.23;;;-3.09;77.68
79366;BME280;68833;53.160;17.920;2023-11-22T05:26:11;101990.67;;;-3.08;77.52
79366;BME280;68833;53.160;17.920;2023-11-22T05:28:38;101991.78;;;-3.07;77.66
79366;BME280;68833;53.160;17.920;2023-11-22T05:35:25;101999.19;;;-3.09;77.44
79366;BME280;68833;53.160;17.920;2023-11-22T05:37:52;101998.71;;;-3.11;77.75
79366;BME280;68833;53.160;17.920;2023-11-22T05:40:19;101998.59;;;-3.10;77.64
79366;BME280;68833;53.160;17.920;2023-11-22T05:42:46;102001.16;;;-3.08;77.88
79366;BME280;68833;53.160;17.920;2023-11-22T05:45:13;101995.46;;;-3.06;77.59
79366;BME280;68833;53.160;17.920;2023-11-22T05:47:40;101990.35;;;-3.05;77.60
79366;BME280;68833;53.160;17.920;2023-11-22T05:50:07;101991.79;;;-3.04;77.91
79366;BME280;68833;53.160;17.920;2023-11-22T05:52:34;101985.13;;;-3.04;78.07
79366;BME280;68833;53.160;17.920;2023-11-22T05:55:02;101989.71;;;-3.02;77.68
79366;BME280;68833;53.160;17.920;2023-11-22T05:57:31;101992.80;;;-3.07;77.39
79366;BME280;68833;53.160;17.920;2023-11-22T05:59:58;102000.01;;;-3.10;77.73
79366;BME280;68833;53.160;17.920;2023-11-22T06:02:25;102003.95;;;-3.13;77.51
79366;BME280;68833;53.160;17.920;2023-11-22T06:04:52;101999.48;;;-3.15;77.96
79366;BME280;68833;53.160;17.920;2023-11-22T06:07:19;101993.26;;;-3.13;78.14
79366;BME280;68833;53.160;17.920;2023-11-22T06:09:46;101985.48;;;-3.09;78.15
79366;BME280;68833;53.160;17.920;2023-11-22T06:12:13;101994.08;;;-3.04;77.97
79366;BME280;68833;53.160;17.920;2023-11-22T06:14:40;102006.96;;;-2.98;77.70
79366;BME280;68833;53.160;17.920;2023-11-22T06:17:07;102015.13;;;-2.97;77.42
79366;BME280;68833;53.160;17.920;2023-11-22T06:19:35;102016.85;;;-2.97;77.40
79366;BME280;68833;53.160;17.920;2023-11-22T06:22:02;102014.14;;;-2.96;78.01
79366;BME280;68833;53.160;17.920;2023-11-22T06:24:29;102017.14;;;-2.95;78.11
79366;BME280;68833;53.160;17.920;2023-11-22T06:26:56;102022.39;;;-2.94;78.07
79366;BME280;68833;53.160;17.920;2023-11-22T06:29:23;102022.46;;;-2.93;78.08
79366;BME280;68833;53.160;17.920;2023-11-22T06:31:50;102024.14;;;-2.91;77.97
79366;BME280;68833;53.160;17.920;2023-11-22T06:34:17;102021.11;;;-2.87;78.09
79366;BME280;68833;53.160;17.920;2023-11-22T06:36:45;102022.17;;;-2.84;78.08
79366;BME280;68833;53.160;17.920;2023-11-22T06:39:12;102027.33;;;-2.81;78.14
79366;BME280;68833;53.160;17.920;2023-11-22T06:41:41;102029.45;;;-2.78;78.42
79366;BME280;68833;53.160;17.920;2023-11-22T06:44:08;102038.96;;;-2.77;77.88
79366;BME280;68833;53.160;17.920;2023-11-22T06:46:36;102038.05;;;-2.78;77.88
79366;BME280;68833;53.160;17.920;2023-11-22T06:49:03;102042.89;;;-2.80;77.82
79366;BME280;68833;53.160;17.920;2023-11-22T06:51:31;102049.82;;;-2.84;78.01
79366;BME280;68833;53.160;17.920;2023-11-22T06:53:58;102058.96;;;-2.87;78.32
79366;BME280;68833;53.160;17.920;2023-11-22T06:56:25;102057.36;;;-2.85;78.30
79366;BME280;68833;53.160;17.920;2023-11-22T06:58:52;102054.98;;;-2.82;78.17
79366;BME280;68833;53.160;17.920;2023-11-22T07:01:22;102063.13;;;-2.81;77.99
79366;BME280;68833;53.160;17.920;2023-11-22T07:03:50;102071.06;;;-2.81;78.07
79366;BME280;68833;53.160;17.920;2023-11-22T07:06:17;102071.73;;;-2.78;78.30
79366;BME280;68833;53.160;17.920;2023-11-22T07:08:45;102076.14;;;-2.77;78.16
79366;BME280;68833;53.160;17.920;2023-11-22T07:11:12;102085.08;;;-2.77;78.01
79366;BME280;68833;53.160;17.920;2023-11-22T07:13:40;102088.08;;;-2.78;77.93
79366;BME280;68833;53.160;17.920;2023-11-22T07:16:07;102091.98;;;-2.81;77.97
79366;BME280;68833;53.160;17.920;2023-11-22T07:18:34;102094.64;;;-2.83;78.06
79366;BME280;68833;53.160;17.920;2023-11-22T07:21:01;102102.14;;;-2.84;78.05
79366;BME280;68833;53.160;17.920;2023-11-22T07:23:28;102106.13;;;-2.83;78.07
79366;BME280;68833;53.160;17.920;2023-11-22T07:25:55;102106.29;;;-2.84;78.03
79366;BME280;68833;53.160;17.920;2023-11-22T07:28:22;102110.50;;;-2.82;78.10
79366;BME280;68833;53.160;17.920;2023-11-22T07:30:49;102108.98;;;-2.82;78.34
79366;BME280;68833;53.160;17.920;2023-11-22T07:33:16;102107.69;;;-2.81;78.43
79366;BME280;68833;53.160;17.920;2023-11-22T07:35:43;102107.08;;;-2.80;78.38
79366;BME280;68833;53.160;17.920;2023-11-22T07:38:10;102111.10;;;-2.79;78.20
79366;BME280;68833;53.160;17.920;2023-11-22T07:40:38;102114.97;;;-2.77;78.61
79366;BME280;68833;53.160;17.920;2023-11-22T07:43:05;102122.92;;;-2.74;78.15
79366;BME280;68833;53.160;17.920;2023-11-22T07:45:32;102130.79;;;-2.73;78.09
79366;BME280;68833;53.160;17.920;2023-11-22T07:47:59;102142.55;;;-2.71;78.30
79366;BME280;68833;53.160;17.920;2023-11-22T07:50:26;102144.98;;;-2.68;78.48
79366;BME280;68833;53.160;17.920;2023-11-22T07:52:53;102138.66;;;-2.65;78.61
79366;BME280;68833;53.160;17.920;2023-11-22T07:55:21;102125.96;;;-2.62;78.73
79366;BME280;68833;53.160;17.920;2023-11-22T07:57:49;102129.22;;;-2.60;78.69
79366;BME280;68833;53.160;17.920;2023-11-22T08:00:23;102127.33;;;-2.57;78.70
79366;BME280;68833;53.160;17.920;2023-11-22T08:02:51;102108.44;;;-2.54;78.63
79366;BME280;68833;53.160;17.920;2023-11-22T08:05:20;102096.39;;;-2.51;78.49
79366;BME280;68833;53.160;17.920;2023-11-22T08:07:50;102100.57;;;-2.48;78.57
79366;BME280;68833;53.160;17.920;2023-11-22T08:10:17;102102.58;;;-2.46;78.53
79366;BME280;68833;53.160;17.920;2023-11-22T08:12:46;102094.76;;;-2.45;78.67
79366;BME280;68833;53.160;17.920;2023-11-22T08:15:14;102092.71;;;-2.42;78.43
79366;BME280;68833;53.160;17.920;2023-11-22T08:17:42;102089.11;;;-2.40;78.92
79366;BME280;68833;53.160;17.920;2023-11-22T08:20:12;102087.69;;;-2.38;78.68
79366;BME280;68833;53.160;17.920;2023-11-22T08:22:40;102087.95;;;-2.33;78.90
79366;BME280;68833;53.160;17.920;2023-11-22T08:25:08;102087.64;;;-2.28;78.72
79366;BME280;68833;53.160;17.920;2023-11-22T08:27:35;102080.95;;;-2.22;78.74
79366;BME280;68833;53.160;17.920;2023-11-22T08:30:02;102079.02;;;-2.17;78.53
79366;BME280;68833;53.160;17.920;2023-11-22T08:32:31;102095.13;;;-2.13;78.41
79366;BME280;68833;53.160;17.920;2023-11-22T08:34:58;102107.15;;;-2.08;78.54
79366;BME280;68833;53.160;17.920;2023-11-22T08:37:25;102102.80;;;-2.04;78.68
79366;BME280;68833;53.160;17.920;2023-11-22T08:39:52;102103.55;;;-2.00;78.38
79366;BME280;68833;53.160;17.920;2023-11-22T08:42:20;102107.37;;;-1.97;78.08
79366;BME280;68833;53.160;17.920;2023-11-22T08:44:47;102111.66;;;-1.95;78.30
79366;BME280;68833;53.160;17.920;2023-11-22T08:47:14;102113.73;;;-1.92;78.38
79366;BME280;68833;53.160;17.920;2023-11-22T08:49:41;102114.59;;;-1.86;78.25
79366;BME280;68833;53.160;17.920;2023-11-22T08:52:08;102114.73;;;-1.81;77.86
79366;BME280;68833;53.160;17.920;2023-11-22T08:54:35;102113.77;;;-1.77;77.62
79366;BME280;68833;53.160;17.920;2023-11-22T08:57:03;102108.17;;;-1.74;77.73
79366;BME280;68833;53.160;17.920;2023-11-22T08:59:30;102097.59;;;-1.69;78.10
79366;BME280;68833;53.160;17.920;2023-11-22T09:01:57;102089.39;;;-1.65;77.55
79366;BME280;68833;53.160;17.920;2023-11-22T09:04:24;102093.17;;;-1.63;78.05
79366;BME280;68833;53.160;17.920;2023-11-22T09:06:52;102104.23;;;-1.60;77.81
79366;BME280;68833;53.160;17.920;2023-11-22T09:09:23;102112.99;;;-1.57;77.39
79366;BME280;68833;53.160;17.920;2023-11-22T09:11:57;102110.35;;;-1.56;77.54
79366;BME280;68833;53.160;17.920;2023-11-22T09:14:25;102102.35;;;-1.54;77.46
79366;BME280;68833;53.160;17.920;2023-11-22T09:16:52;102096.77;;;-1.52;77.78
79366;BME280;68833;53.160;17.920;2023-11-22T09:19:22;102091.77;;;-1.49;77.59
79366;BME280;68833;53.160;17.920;2023-11-22T09:21:49;102088.45;;;-1.44;77.26
79366;BME280;68833;53.160;17.920;2023-11-22T09:24:17;102090.83;;;-1.40;77.40
79366;BME280;68833;53.160;17.920;2023-11-22T09:26:45;102094.14;;;-1.34;77.18
79366;BME280;68833;53.160;17.920;2023-11-22T09:29:12;102094.14;;;-1.28;77.49
79366;BME280;68833;53.160;17.920;2023-11-22T09:31:42;102094.67;;;-1.22;76.68
79366;BME280;68833;53.160;17.920;2023-11-22T09:34:09;102098.56;;;-1.17;76.38
79366;BME280;68833;53.160;17.920;2023-11-22T09:36:36;102097.79;;;-1.13;77.18
79366;BME280;68833;53.160;17.920;2023-11-22T09:39:03;102107.73;;;-1.09;77.12
79366;BME280;68833;53.160;17.920;2023-11-22T09:41:35;102111.77;;;-1.05;76.64
79366;BME280;68833;53.160;17.920;2023-11-22T09:44:02;102115.68;;;-1.03;75.90
79366;BME280;68833;53.160;17.920;2023-11-22T09:46:31;102112.41;;;-1.03;76.27
79366;BME280;68833;53.160;17.920;2023-11-22T09:49:02;102105.98;;;-1.04;75.91
79366;BME280;68833;53.160;17.920;2023-11-22T09:51:33;102109.52;;;-1.02;76.13
79366;BME280;68833;53.160;17.920;2023-11-22T09:54:04;102105.53;;;-1.00;75.57
79366;BME280;68833;53.160;17.920;2023-11-22T09:56:34;102103.97;;;-0.96;76.44
79366;BME280;68833;53.160;17.920;2023-11-22T09:59:04;102101.45;;;-0.93;76.48
79366;BME280;68833;53.160;17.920;2023-11-22T10:01:34;102105.40;;;-0.87;76.21
79366;BME280;68833;53.160;17.920;2023-11-22T10:04:03;102104.45;;;-0.83;76.54
79366;BME280;68833;53.160;17.920;2023-11-22T10:06:33;102103.39;;;-0.77;76.34
79366;BME280;68833;53.160;17.920;2023-11-22T10:09:04;102100.30;;;-0.74;76.50
79366;BME280;68833;53.160;17.920;2023-11-22T10:11:35;102101.40;;;-0.70;75.48
79366;BME280;68833;53.160;17.920;2023-11-22T10:14:07;102101.85;;;-0.69;75.45
79366;BME280;68833;53.160;17.920;2023-11-22T10:16:33;102100.17;;;-0.68;75.43
79366;BME280;68833;53.160;17.920;2023-11-22T10:19:00;102106.09;;;-0.67;75.70
79366;BME280;68833;53.160;17.920;2023-11-22T10:21:28;102103.45;;;-0.68;75.90
79366;BME280;68833;53.160;17.920;2023-11-22T10:24:01;102102.02;;;-0.69;75.11
79366;BME280;68833;53.160;17.920;2023-11-22T10:26:30;102094.34;;;-0.70;74.35
79366;BME280;68833;53.160;17.920;2023-11-22T10:28:58;102086.25;;;-0.73;74.86
79366;BME280;68833;53.160;17.920;2023-11-22T10:31:25;102086.34;;;-0.71;75.34
79366;BME280;68833;53.160;17.920;2023-11-22T10:33:53;102087.16;;;-0.72;74.37
79366;BME280;68833;53.160;17.920;2023-11-22T10:36:22;102087.97;;;-0.73;74.41
79366;BME280;68833;53.160;17.920;2023-11-22T10:38:49;102076.77;;;-0.73;74.12
79366;BME280;68833;53.160;17.920;2023-11-22T10:41:20;102072.94;;;-0.67;74.09
79366;BME280;68833;53.160;17.920;2023-11-22T10:43:47;102083.14;;;-0.61;73.92
79366;BME280;68833;53.160;17.920;2023-11-22T10:46:15;102085.75;;;-0.55;74.10
79366;BME280;68833;53.160;17.920;2023-11-22T10:48:43;102081.95;;;-0.49;74.63
79366;BME280;68833;53.160;17.920;2023-11-22T10:51:12;102080.99;;;-0.45;73.93
79366;BME280;68833;53.160;17.920;2023-11-22T10:53:48;102075.45;;;-0.42;73.89
79366;BME280;68833;53.160;17.920;2023-11-22T10:56:17;102070.64;;;-0.39;73.93
79366;BME280;68833;53.160;17.920;2023-11-22T10:58:53;102071.31;;;-0.36;73.84
79366;BME280;68833;53.160;17.920;2023-11-22T11:04:09;102061.70;;;-0.29;73.89
79366;BME280;68833;53.160;17.920;2023-11-22T11:06:37;102060.45;;;-0.30;74.01
79366;BME280;68833;53.160;17.920;2023-11-22T11:09:05;102059.34;;;-0.28;73.91
79366;BME280;68833;53.160;17.920;2023-11-22T11:11:33;102057.37;;;-0.26;73.82
79366;BME280;68833;53.160;17.920;2023-11-22T11:14:02;102056.02;;;-0.26;73.47
79366;BME280;68833;53.160;17.920;2023-11-22T11:16:30;102059.24;;;-0.23;73.27
79366;BME280;68833;53.160;17.920;2023-11-22T11:19:01;102066.06;;;-0.19;73.13
79366;BME280;68833;53.160;17.920;2023-11-22T11:21:28;102066.78;;;-0.15;73.19
79366;BME280;68833;53.160;17.920;2023-11-22T11:23:55;102065.22;;;-0.12;73.41
79366;BME280;68833;53.160;17.920;2023-11-22T11:26:28;102067.70;;;-0.11;73.05
79366;BME280;68833;53.160;17.920;2023-11-22T11:28:57;102064.00;;;-0.10;73.25
79366;BME280;68833;53.160;17.920;2023-11-22T11:31:31;102056.96;;;-0.08;73.57
79366;BME280;68833;53.160;17.920;2023-11-22T11:33:57;102064.39;;;-0.06;73.44
79366;BME280;68833;53.160;17.920;2023-11-22T11:36:26;102067.17;;;-0.02;73.34
79366;BME280;68833;53.160;17.920;2023-11-22T11:38:54;102074.09;;;0.04;73.13
79366;BME280;68833;53.160;17.920;2023-11-22T11:41:28;102074.31;;;0.08;73.12
79366;BME280;68833;53.160;17.920;2023-11-22T11:43:56;102067.96;;;0.12;72.94
79366;BME280;68833;53.160;17.920;2023-11-22T11:46:23;102064.61;;;0.14;72.28
79366;BME280;68833;53.160;17.920;2023-11-22T11:48:52;102055.14;;;0.14;72.59
79366;BME280;68833;53.160;17.920;2023-11-22T11:51:20;102048.10;;;0.15;72.63
79366;BME280;68833;53.160;17.920;2023-11-22T11:53:47;102047.67;;;0.17;72.73
79366;BME280;68833;53.160;17.920;2023-11-22T11:56:13;102051.08;;;0.19;72.62
79366;BME280;68833;53.160;17.920;2023-11-22T11:58:47;102057.73;;;0.21;72.73
79366;BME280;68833;53.160;17.920;2023-11-22T12:01:16;102058.53;;;0.23;72.71
79366;BME280;68833;53.160;17.920;2023-11-22T12:03:43;102054.16;;;0.22;72.50
79366;BME280;68833;53.160;17.920;2023-11-22T12:06:10;102053.07;;;0.21;72.56
79366;BME280;68833;53.160;17.920;2023-11-22T12:08:36;102048.23;;;0.21;72.52
79366;BME280;68833;53.160;17.920;2023-11-22T12:11:03;102041.80;;;0.20;72.67
79366;BME280;68833;53.160;17.920;2023-11-22T12:13:34;102037.31;;;0.20;72.86
79366;BME280;68833;53.160;17.920;2023-11-22T12:16:07;102033.34;;;0.20;72.71
79366;BME280;68833;53.160;17.920;2023-11-22T12:18:45;102027.61;;;0.20;72.65
79366;BME280;68833;53.160;17.920;2023-11-22T12:21:14;102020.27;;;0.21;72.60
79366;BME280;68833;53.160;17.920;2023-11-22T12:23:42;102019.23;;;0.24;72.41
79366;BME280;68833;53.160;17.920;2023-11-22T12:26:11;102004.49;;;0.27;72.52
79366;BME280;68833;53.160;17.920;2023-11-22T12:28:39;101999.95;;;0.29;72.73
79366;BME280;68833;53.160;17.920;2023-11-22T12:31:10;102001.77;;;0.31;72.53
79366;BME280;68833;53.160;17.920;2023-11-22T12:33:37;102000.96;;;0.32;72.09
79366;BME280;68833;53.160;17.920;2023-11-22T12:36:06;101998.26;;;0.32;72.37
79366;BME280;68833;53.160;17.920;2023-11-22T12:38:36;101987.59;;;0.33;72.30
79366;BME280;68833;53.160;17.920;2023-11-22T12:41:05;101983.85;;;0.35;72.40
79366;BME280;68833;53.160;17.920;2023-11-22T12:43:33;101988.59;;;0.36;72.55
79366;BME280;68833;53.160;17.920;2023-11-22T12:46:00;101996.04;;;0.36;72.40
79366;BME280;68833;53.160;17.920;2023-11-22T12:48:27;101995.84;;;0.36;72.14
79366;BME280;68833;53.160;17.920;2023-11-22T12:50:56;102002.69;;;0.35;72.08